sensor_id;sensor_type;location;lat;lon;timestamp;P1;durP1;ratioP1;P2;durP2;ratioP2
54557;SDS011;40452;50.080;20.040;2023-03-13T04:03:09;6.47;;;3.60;;
54557;SDS011;40452;50.080;20.040;2023-03-13T04:05:35;5.10;;;3.30;;
54557;SDS011;40452;50.080;20.040;2023-03-13T04:08:00;6.68;;;3.75;;
54557;SDS011;40452;50.080;20.040;2023-03-13T04:10:26;5.18;;;3.13;;
54557;SDS011;40452;50.080;20.040;2023-03-13T04:12:51;3.70;;;2.60;;
54557;SDS011;40452;50.080;20.040;2023-03-13T04:15:17;4.18;;;2.80;;
54557;SDS011;40452;50.080;20.040;2023-03-13T04:17:45;3.63;;;2.33;;
54557;SDS011;40452;50.080;20.040;2023-03-13T04:20:11;13.95;;;2.58;;
54557;SDS011;40452;50.080;20.040;2023-03-13T04:22:38;6.05;;;1.90;;
54557;SDS011;40452;50.080;20.040;2023-03-13T04:25:04;2.70;;;1.73;;
54557;SDS011;40452;50.080;20.040;2023-03-13T04:27:31;3.40;;;1.90;;
54557;SDS011;40452;50.080;20.040;2023-03-13T04:29:57;3.00;;;1.55;;
54557;SDS011;40452;50.080;20.040;2023-03-13T04:32:23;2.92;;;1.52;;
54557;SDS011;40452;50.080;20.040;2023-03-13T04:34:49;3.55;;;1.80;;
54557;SDS011;40452;50.080;20.040;2023-03-13T04:37:14;2.47;;;1.70;;
54557;SDS011;40452;50.080;20.040;2023-03-13T04:39:40;4.50;;;1.85;;
54557;SDS011;40452;50.080;20.040;2023-03-13T04:42:06;3.50;;;1.83;;
54557;SDS011;40452;50.080;20.040;2023-03-13T04:44:31;5.35;;;2.35;;
54557;SDS011;40452;50.080;20.040;2023-03-13T04:47:00;3.22;;;2.08;;
54557;SDS011;40452;50.080;20.040;2023-03-13T04:49:25;4.40;;;2.42;;
54557;SDS011;40452;50.080;20.040;2023-03-13T04:51:51;4.80;;;2.50;;
54557;SDS011;40452;50.080;20.040;2023-03-13T04:54:16;6.70;;;2.58;;
54557;SDS011;40452;50.080;20.040;2023-03-13T04:56:42;6.70;;;3.00;;
54557;SDS011;40452;50.080;20.040;2023-03-13T04:59:08;5.80;;;3.42;;
54557;SDS011;40452;50.080;20.040;2023-03-13T05:01:35;4.50;;;3.05;;
54557;SDS011;40452;50.080;20.040;2023-03-13T05:04:00;6.03;;;3.40;;
54557;SDS011;40452;50.080;20.040;2023-03-13T05:06:26;5.10;;;3.40;;
54557;SDS011;40452;50.080;20.040;2023-03-13T05:08:51;6.03;;;4.15;;
54557;SDS011;40452;50.080;20.040;2023-03-13T05:11:17;7.88;;;4.00;;
54557;SDS011;40452;50.080;20.040;2023-03-13T05:13:43;6.15;;;3.65;;
54557;SDS011;40452;50.080;20.040;2023-03-13T05:16:08;5.30;;;3.63;;
54557;SDS011;40452;50.080;20.040;2023-03-13T05:18:34;4.68;;;3.22;;
54557;SDS011;40452;50.080;20.040;2023-03-13T05:21:00;7.45;;;4.00;;
54557;SDS011;40452;50.080;20.040;2023-03-13T05:23:26;7.85;;;4.10;;
54557;SDS011;40452;50.080;20.040;2023-03-13T05:25:51;7.13;;;4.28;;
54557;SDS011;40452;50.080;20.040;2023-03-13T05:28:17;6.13;;;4.00;;
54557;SDS011;40452;50.080;20.040;2023-03-13T05:30:42;5.72;;;4.03;;
54557;SDS011;40452;50.080;20.040;2023-03-13T05:33:08;7.68;;;4.30;;
54557;SDS011;40452;50.080;20.040;2023-03-13T05:35:33;9.18;;;4.30;;
54557;SDS011;40452;50.080;20.040;2023-03-13T05:37:59;8.05;;;4.60;;
54557;SDS011;40452;50.080;20.040;2023-03-13T05:40:24;8.23;;;4.40;;
54557;SDS011;40452;50.080;20.040;2023-03-13T05:42:50;6.75;;;4.28;;
54557;SDS011;40452;50.080;20.040;2023-03-13T05:45:15;7.30;;;4.68;;
54557;SDS011;40452;50.080;20.040;2023-03-13T05:47:41;7.50;;;4.05;;
54557;SDS011;40452;50.080;20.040;2023-03-13T05:50:07;7.97;;;4.25;;
54557;SDS011;40452;50.080;20.040;2023-03-13T05:52:33;5.75;;;3.80;;
54557;SDS011;40452;50.080;20.040;2023-03-13T05:54:58;6.97;;;4.25;;
54557;SDS011;40452;50.080;20.040;2023-03-13T05:57:24;8.57;;;4.57;;
54557;SDS011;40452;50.080;20.040;2023-03-13T05:59:49;7.70;;;4.35;;
54557;SDS011;40452;50.080;20.040;2023-03-13T06:02:15;8.95;;;4.43;;
54557;SDS011;40452;50.080;20.040;2023-03-13T06:04:41;8.45;;;4.40;;
54557;SDS011;40452;50.080;20.040;2023-03-13T06:07:06;8.88;;;4.20;;
54557;SDS011;40452;50.080;20.040;2023-03-13T06:09:32;9.52;;;4.70;;
54557;SDS011;40452;50.080;20.040;2023-03-13T06:12:00;15.45;;;4.60;;
54557;SDS011;40452;50.080;20.040;2023-03-13T06:14:26;8.57;;;4.50;;
54557;SDS011;40452;50.080;20.040;2023-03-13T06:16:53;14.52;;;4.57;;
54557;SDS011;40452;50.080;20.040;2023-03-13T06:19:19;8.77;;;4.32;;
54557;SDS011;40452;50.080;20.040;2023-03-13T06:21:45;6.78;;;4.05;;
54557;SDS011;40452;50.080;20.040;2023-03-13T06:24:10;9.75;;;4.15;;
54557;SDS011;40452;50.080;20.040;2023-03-13T06:26:36;7.78;;;4.35;;
54557;SDS011;40452;50.080;20.040;2023-03-13T06:29:01;6.32;;;3.00;;
54557;SDS011;40452;50.080;20.040;2023-03-13T06:31:27;5.68;;;2.60;;
54557;SDS011;40452;50.080;20.040;2023-03-13T06:33:52;6.72;;;2.88;;
54557;SDS011;40452;50.080;20.040;2023-03-13T06:36:19;6.18;;;2.72;;
54557;SDS011;40452;50.080;20.040;2023-03-13T06:38:45;4.88;;;2.72;;
54557;SDS011;40452;50.080;20.040;2023-03-13T06:41:11;6.13;;;2.78;;
54557;SDS011;40452;50.080;20.040;2023-03-13T06:43:36;5.10;;;2.80;;
54557;SDS011;40452;50.080;20.040;2023-03-13T06:46:04;6.00;;;2.88;;
54557;SDS011;40452;50.080;20.040;2023-03-13T06:48:30;8.75;;;2.67;;
54557;SDS011;40452;50.080;20.040;2023-03-13T13:37:44;35.15;;;22.65;;
54557;SDS011;40452;50.080;20.040;2023-03-13T15:16:17;24.08;;;15.90;;
54557;SDS011;40452;50.080;20.040;2023-03-13T15:18:45;29.63;;;16.65;;
54557;SDS011;40452;50.080;20.040;2023-03-13T15:23:37;27.67;;;16.77;;
54557;SDS011;40452;50.080;20.040;2023-03-13T15:26:03;27.27;;;15.75;;
54557;SDS011;40452;50.080;20.040;2023-03-13T15:28:29;26.52;;;16.10;;
54557;SDS011;40452;50.080;20.040;2023-03-13T15:30:55;25.60;;;15.45;;
54557;SDS011;40452;50.080;20.040;2023-03-13T15:33:21;25.65;;;14.68;;
54557;SDS011;40452;50.080;20.040;2023-03-13T15:35:49;22.75;;;15.05;;
54557;SDS011;40452;50.080;20.040;2023-03-13T15:38:22;27.88;;;15.35;;
54557;SDS011;40452;50.080;20.040;2023-03-13T15:40:49;25.75;;;15.18;;
54557;SDS011;40452;50.080;20.040;2023-03-13T15:43:16;21.70;;;14.18;;
54557;SDS011;40452;50.080;20.040;2023-03-13T15:45:43;23.85;;;13.90;;
54557;SDS011;40452;50.080;20.040;2023-03-13T15:48:15;27.63;;;13.63;;
54557;SDS011;40452;50.080;20.040;2023-03-13T15:50:52;22.60;;;13.43;;
54557;SDS011;40452;50.080;20.040;2023-03-13T15:53:23;23.90;;;14.30;;
54557;SDS011;40452;50.080;20.040;2023-03-13T15:55:52;23.48;;;13.05;;
54557;SDS011;40452;50.080;20.040;2023-03-13T15:58:18;21.00;;;12.25;;
54557;SDS011;40452;50.080;20.040;2023-03-13T16:00:50;20.88;;;12.43;;
54557;SDS011;40452;50.080;20.040;2023-03-13T16:03:17;21.80;;;12.43;;
54557;SDS011;40452;50.080;20.040;2023-03-13T16:05:51;18.17;;;11.95;;
54557;SDS011;40452;50.080;20.040;2023-03-13T16:08:21;17.23;;;11.35;;
54557;SDS011;40452;50.080;20.040;2023-03-13T16:10:49;20.58;;;11.90;;
54557;SDS011;40452;50.080;20.040;2023-03-13T16:13:15;18.17;;;11.15;;
54557;SDS011;40452;50.080;20.040;2023-03-13T16:15:41;17.42;;;10.73;;
54557;SDS011;40452;50.080;20.040;2023-03-13T16:18:15;20.05;;;11.45;;
54557;SDS011;40452;50.080;20.040;2023-03-13T16:20:44;18.23;;;10.80;;
54557;SDS011;40452;50.080;20.040;2023-03-13T16:23:13;17.58;;;11.18;;
54557;SDS011;40452;50.080;20.040;2023-03-13T16:25:41;16.50;;;10.68;;
54557;SDS011;40452;50.080;20.040;2023-03-13T16:28:14;20.80;;;10.77;;
54557;SDS011;40452;50.080;20.040;2023-03-13T16:30:42;16.15;;;10.25;;
54557;SDS011;40452;50.080;20.040;2023-03-13T16:33:08;17.27;;;10.50;;
54557;SDS011;40452;50.080;20.040;2023-03-13T16:35:34;18.20;;;10.70;;
54557;SDS011;40452;50.080;20.040;2023-03-13T16:38:00;16.75;;;9.65;;
54557;SDS011;40452;50.080;20.040;2023-03-13T16:40:28;18.13;;;10.13;;
54557;SDS011;40452;50.080;20.040;2023-03-13T16:42:55;19.02;;;9.68;;
54557;SDS011;40452;50.080;20.040;2023-03-13T16:45:21;14.75;;;9.45;;
54557;SDS011;40452;50.080;20.040;2023-03-13T16:47:46;15.32;;;9.52;;
54557;SDS011;40452;50.080;20.040;2023-03-13T16:52:53;15.35;;;9.32;;
54557;SDS011;40452;50.080;20.040;2023-03-13T16:55:19;15.65;;;9.65;;
54557;SDS011;40452;50.080;20.040;2023-03-13T16:57:45;16.58;;;9.68;;
54557;SDS011;40452;50.080;20.040;2023-03-13T17:00:12;15.25;;;9.48;;
54557;SDS011;40452;50.080;20.040;2023-03-13T17:02:43;14.40;;;9.23;;
54557;SDS011;40452;50.080;20.040;2023-03-13T17:05:09;13.65;;;9.10;;
54557;SDS011;40452;50.080;20.040;2023-03-13T17:07:36;15.15;;;9.27;;
54557;SDS011;40452;50.080;20.040;2023-03-13T17:10:03;15.27;;;8.73;;
54557;SDS011;40452;50.080;20.040;2023-03-13T17:12:39;15.05;;;8.40;;
54557;SDS011;40452;50.080;20.040;2023-03-13T17:15:04;15.07;;;9.32;;
54557;SDS011;40452;50.080;20.040;2023-03-13T17:17:38;13.82;;;9.15;;
54557;SDS011;40452;50.080;20.040;2023-03-13T17:20:16;14.32;;;9.32;;
54557;SDS011;40452;50.080;20.040;2023-03-13T17:22:56;13.52;;;8.80;;
54557;SDS011;40452;50.080;20.040;2023-03-13T17:25:37;14.20;;;9.25;;
54557;SDS011;40452;50.080;20.040;2023-03-13T17:28:03;16.15;;;9.88;;
54557;SDS011;40452;50.080;20.040;2023-03-13T17:30:29;15.45;;;9.35;;
54557;SDS011;40452;50.080;20.040;2023-03-13T17:32:55;18.15;;;8.95;;
54557;SDS011;40452;50.080;20.040;2023-03-13T17:35:24;18.52;;;10.00;;
54557;SDS011;40452;50.080;20.040;2023-03-13T17:37:50;22.30;;;11.00;;
54557;SDS011;40452;50.080;20.040;2023-03-13T17:40:23;22.70;;;11.15;;
54557;SDS011;40452;50.080;20.040;2023-03-13T17:42:51;19.92;;;11.27;;
54557;SDS011;40452;50.080;20.040;2023-03-13T17:45:20;22.92;;;11.23;;
54557;SDS011;40452;50.080;20.040;2023-03-13T17:47:46;19.52;;;10.65;;
54557;SDS011;40452;50.080;20.040;2023-03-13T17:50:25;20.70;;;11.07;;
54557;SDS011;40452;50.080;20.040;2023-03-13T17:53:41;18.38;;;10.20;;
54557;SDS011;40452;50.080;20.040;2023-03-13T17:56:52;21.80;;;10.95;;
54557;SDS011;40452;50.080;20.040;2023-03-13T17:59:01;20.75;;;10.65;;
54557;SDS011;40452;50.080;20.040;2023-03-13T18:01:29;22.67;;;11.60;;
54557;SDS011;40452;50.080;20.040;2023-03-13T18:03:56;17.60;;;10.25;;
54557;SDS011;40452;50.080;20.040;2023-03-13T18:06:31;22.67;;;10.90;;
54557;SDS011;40452;50.080;20.040;2023-03-13T18:09:17;18.00;;;10.80;;
54557;SDS011;40452;50.080;20.040;2023-03-13T18:11:47;20.00;;;10.90;;
54557;SDS011;40452;50.080;20.040;2023-03-13T18:14:13;20.25;;;10.27;;
54557;SDS011;40452;50.080;20.040;2023-03-13T18:16:45;21.63;;;11.10;;
54557;SDS011;40452;50.080;20.040;2023-03-13T18:19:13;19.17;;;10.95;;
54557;SDS011;40452;50.080;20.040;2023-03-13T18:21:39;20.98;;;10.80;;
54557;SDS011;40452;50.080;20.040;2023-03-13T18:24:06;17.08;;;10.43;;
54557;SDS011;40452;50.080;20.040;2023-03-13T18:26:35;18.40;;;10.20;;
54557;SDS011;40452;50.080;20.040;2023-03-13T18:31:41;27.63;;;10.50;;
54557;SDS011;40452;50.080;20.040;2023-03-13T18:36:35;20.65;;;10.27;;
54557;SDS011;40452;50.080;20.040;2023-03-13T18:39:02;16.65;;;10.10;;
54557;SDS011;40452;50.080;20.040;2023-03-13T18:41:30;17.60;;;9.57;;
54557;SDS011;40452;50.080;20.040;2023-03-13T18:43:55;19.58;;;9.73;;
54557;SDS011;40452;50.080;20.040;2023-03-13T18:48:52;15.68;;;9.43;;
54557;SDS011;40452;50.080;20.040;2023-03-13T18:51:19;16.50;;;9.20;;
54557;SDS011;40452;50.080;20.040;2023-03-13T18:53:46;14.95;;;8.82;;
54557;SDS011;40452;50.080;20.040;2023-03-13T18:58:45;16.20;;;8.75;;
54557;SDS011;40452;50.080;20.040;2023-03-13T19:01:12;15.45;;;8.40;;
54557;SDS011;40452;50.080;20.040;2023-03-13T19:03:39;15.73;;;8.80;;
54557;SDS011;40452;50.080;20.040;2023-03-13T19:06:16;13.95;;;8.07;;
54557;SDS011;40452;50.080;20.040;2023-03-13T19:08:53;12.57;;;7.45;;
54557;SDS011;40452;50.080;20.040;2023-03-13T19:11:21;12.90;;;7.40;;
54557;SDS011;40452;50.080;20.040;2023-03-13T19:13:49;15.18;;;8.18;;
54557;SDS011;40452;50.080;20.040;2023-03-13T19:18:48;13.57;;;7.65;;
54557;SDS011;40452;50.080;20.040;2023-03-13T19:21:26;15.13;;;7.80;;
54557;SDS011;40452;50.080;20.040;2023-03-13T19:23:53;14.18;;;7.50;;
54557;SDS011;40452;50.080;20.040;2023-03-13T19:26:29;14.52;;;7.53;;
54557;SDS011;40452;50.080;20.040;2023-03-13T19:29:00;14.25;;;7.65;;
54557;SDS011;40452;50.080;20.040;2023-03-13T19:31:28;12.75;;;7.22;;
54557;SDS011;40452;50.080;20.040;2023-03-13T19:33:53;13.65;;;7.38;;
54557;SDS011;40452;50.080;20.040;2023-03-13T19:36:20;19.33;;;9.32;;
54557;SDS011;40452;50.080;20.040;2023-03-13T19:38:47;20.23;;;10.82;;
54557;SDS011;40452;50.080;20.040;2023-03-13T19:41:13;19.23;;;10.25;;
54557;SDS011;40452;50.080;20.040;2023-03-13T19:43:39;23.10;;;11.32;;
54557;SDS011;40452;50.080;20.040;2023-03-13T19:46:24;16.52;;;10.05;;
54557;SDS011;40452;50.080;20.040;2023-03-13T19:48:58;19.17;;;11.52;;
54557;SDS011;40452;50.080;20.040;2023-03-13T19:51:26;19.60;;;12.18;;
54557;SDS011;40452;50.080;20.040;2023-03-13T19:53:52;19.35;;;12.18;;
54557;SDS011;40452;50.080;20.040;2023-03-13T19:56:38;19.20;;;11.60;;
54557;SDS011;40452;50.080;20.040;2023-03-13T19:59:06;19.20;;;12.10;;
54557;SDS011;40452;50.080;20.040;2023-03-13T20:01:42;18.40;;;12.07;;
